createdAt,value
2022-10-06T00:00:31.214Z,15.07
2022-10-06T00:02:35.854Z,15.08
2022-10-06T00:04:39.343Z,14.81
2022-10-06T00:06:42.739Z,14.92
2022-10-06T00:08:47.472Z,14.86
2022-10-06T00:10:50.845Z,15.00
2022-10-06T00:12:54.317Z,15.10
2022-10-06T00:14:57.630Z,15.10
2022-10-06T00:17:02.533Z,15.04
2022-10-06T00:19:06.150Z,15.09
2022-10-06T00:21:09.539Z,15.08
2022-10-06T00:23:12.910Z,15.04
2022-10-06T00:25:19.534Z,15.05
2022-10-06T00:27:22.846Z,14.89
2022-10-06T00:29:26.179Z,14.80
2022-10-06T00:31:29.663Z,15.00
2022-10-06T00:33:34.385Z,14.88
2022-10-06T00:35:37.775Z,14.96
2022-10-06T00:37:41.111Z,15.14
2022-10-06T00:39:44.488Z,15.14
2022-10-06T00:41:47.900Z,15.14
2022-10-06T00:43:53.287Z,15.24
2022-10-06T00:45:56.751Z,15.18
2022-10-06T00:48:05.540Z,15.22
2022-10-06T00:50:12.778Z,15.31
2022-10-06T00:52:19.779Z,15.22
2022-10-06T00:54:23.143Z,15.22
2022-10-06T00:56:27.614Z,15.28
2022-10-06T00:58:31.723Z,15.35
2022-10-06T01:00:35.381Z,15.35
2022-10-06T01:02:43.598Z,15.38
2022-10-06T01:04:50.968Z,15.51
2022-10-06T01:06:58.664Z,15.34
2022-10-06T01:09:02.042Z,15.28
2022-10-06T01:11:05.377Z,15.26
2022-10-06T01:13:13.269Z,15.26
2022-10-06T01:15:17.558Z,15.27
2022-10-06T01:17:26.310Z,15.29
2022-10-06T01:19:40.556Z,15.38
2022-10-06T01:21:48.499Z,15.37
2022-10-06T01:23:53.684Z,15.46
2022-10-06T01:25:58.581Z,15.35
2022-10-06T01:28:03.910Z,15.35
2022-10-06T01:30:10.417Z,15.39
2022-10-06T01:32:15.783Z,15.27
2022-10-06T01:34:19.273Z,15.14
2022-10-06T01:36:23.176Z,15.09
2022-10-06T01:38:28.564Z,15.03
2022-10-06T01:40:38.669Z,15.16
2022-10-06T01:42:42.064Z,15.11
2022-10-06T01:44:45.437Z,15.17
2022-10-06T01:46:49.538Z,15.10
2022-10-06T01:48:53.419Z,15.09
2022-10-06T01:50:56.722Z,15.13
2022-10-06T01:53:00.085Z,15.22
2022-10-06T01:55:03.643Z,15.28
2022-10-06T01:57:09.531Z,15.28
2022-10-06T01:59:14.281Z,15.15
2022-10-06T02:01:18.121Z,15.03
2022-10-06T02:03:21.682Z,15.09
2022-10-06T02:05:24.996Z,15.03
2022-10-06T02:07:29.820Z,15.01
2022-10-06T02:09:33.195Z,14.93
2022-10-06T02:11:40.987Z,14.86
2022-10-06T02:13:45.821Z,14.86
2022-10-06T02:15:49.275Z,14.83
2022-10-06T02:17:52.776Z,14.67
2022-10-06T02:19:56.582Z,14.77
2022-10-06T02:21:59.927Z,14.76
2022-10-06T02:24:03.306Z,14.61
2022-10-06T02:26:07.453Z,14.35
2022-10-06T02:28:11.838Z,14.73
2022-10-06T02:30:17.539Z,14.72
2022-10-06T02:32:22.904Z,14.87
2022-10-06T02:34:26.705Z,14.48
2022-10-06T02:36:30.452Z,14.57
2022-10-06T02:38:34.211Z,14.71
2022-10-06T02:40:38.699Z,14.53
2022-10-06T02:42:42.062Z,14.61
2022-10-06T02:44:45.792Z,14.45
2022-10-06T02:46:50.644Z,14.52
2022-10-06T02:48:54.621Z,14.61
2022-10-06T02:50:59.116Z,14.57
2022-10-06T02:53:02.463Z,14.54
2022-10-06T02:55:08.009Z,14.68
2022-10-06T02:57:11.290Z,14.73
2022-10-06T02:59:15.441Z,14.50
2022-10-06T03:01:21.786Z,14.46
2022-10-06T03:03:26.529Z,14.52
2022-10-06T03:05:30.436Z,14.43
2022-10-06T03:07:33.949Z,14.27
2022-10-06T03:09:37.335Z,14.49
2022-10-06T03:11:43.029Z,14.51
2022-10-06T03:13:52.495Z,14.60
2022-10-06T03:15:55.835Z,14.44
2022-10-06T03:17:59.451Z,14.46
2022-10-06T03:20:04.464Z,14.43
2022-10-06T03:22:10.500Z,14.21
2022-10-06T03:24:20.209Z,14.26
2022-10-06T03:26:31.980Z,14.40
2022-10-06T03:28:35.812Z,14.37
2022-10-06T03:30:39.299Z,14.39
2022-10-06T03:32:42.688Z,14.42
2022-10-06T03:34:47.704Z,14.40
2022-10-06T03:36:53.494Z,14.32
2022-10-06T03:38:59.797Z,14.26
2022-10-06T03:41:05.417Z,14.38
2022-10-06T03:43:10.676Z,14.24
2022-10-06T03:45:14.200Z,14.24
2022-10-06T03:47:19.119Z,14.18
2022-10-06T03:49:23.309Z,14.18
2022-10-06T03:51:29.694Z,14.09
2022-10-06T03:53:36.136Z,13.98
2022-10-06T03:55:39.745Z,13.99
2022-10-06T03:57:43.083Z,13.97
2022-10-06T03:59:46.847Z,13.97
2022-10-06T04:01:52.944Z,14.02
2022-10-06T04:04:02.545Z,13.96
2022-10-06T04:06:08.306Z,13.86
2022-10-06T04:08:11.621Z,13.97
2022-10-06T04:10:16.415Z,14.07
2022-10-06T04:12:19.837Z,13.99
2022-10-06T04:14:23.155Z,13.89
2022-10-06T04:16:29.489Z,13.92
2022-10-06T04:18:33.380Z,13.78
2022-10-06T04:20:37.302Z,13.83
2022-10-06T04:22:40.963Z,13.94
2022-10-06T04:24:44.689Z,13.98
2022-10-06T04:26:50.079Z,13.81
2022-10-06T04:28:55.071Z,13.71
2022-10-06T04:30:58.990Z,13.74
2022-10-06T04:33:02.427Z,13.84
2022-10-06T04:35:06.621Z,13.69
2022-10-06T04:37:10.744Z,13.71
2022-10-06T04:39:15.208Z,13.62
2022-10-06T04:41:21.759Z,13.66
2022-10-06T04:43:27.895Z,13.56
2022-10-06T04:45:31.383Z,13.64
2022-10-06T04:47:34.974Z,13.66
2022-10-06T04:49:38.396Z,13.64
2022-10-06T04:51:41.721Z,13.67
2022-10-06T04:53:46.024Z,13.56
2022-10-06T04:55:59.764Z,13.58
2022-10-06T04:58:03.425Z,13.44
2022-10-06T05:00:25.151Z,13.43
2022-10-06T05:02:30.025Z,13.32
2022-10-06T05:04:34.139Z,13.48
2022-10-06T05:06:39.726Z,13.51
2022-10-06T05:08:43.251Z,13.46
2022-10-06T05:10:46.703Z,13.39
2022-10-06T05:12:50.103Z,13.28
2022-10-06T05:14:53.446Z,13.35
2022-10-06T05:16:58.164Z,13.30
2022-10-06T05:19:02.305Z,13.22
2022-10-06T05:21:08.279Z,13.21
2022-10-06T05:23:11.598Z,13.30
2022-10-06T05:25:14.996Z,13.33
2022-10-06T05:27:18.397Z,13.33
2022-10-06T05:29:21.710Z,13.16
2022-10-06T05:31:27.855Z,13.10
2022-10-06T05:33:35.482Z,13.27
2022-10-06T05:35:39.810Z,13.19
2022-10-06T05:37:43.151Z,13.27
2022-10-06T05:39:46.666Z,13.19
2022-10-06T05:41:50.140Z,13.30
2022-10-06T05:43:54.020Z,13.33
2022-10-06T05:45:58.764Z,13.20
2022-10-06T05:48:02.337Z,13.23
2022-10-06T05:50:08.132Z,13.20
2022-10-06T05:52:11.680Z,13.09
2022-10-06T05:54:15.230Z,13.08
2022-10-06T05:56:22.433Z,13.04
2022-10-06T05:58:25.767Z,13.17
2022-10-06T06:00:29.092Z,13.19
2022-10-06T06:02:32.514Z,13.22
2022-10-06T06:04:35.903Z,13.09
2022-10-06T06:06:42.758Z,13.25
2022-10-06T06:08:53.692Z,13.20
2022-10-06T06:11:05.513Z,13.27
2022-10-06T06:13:08.870Z,13.11
2022-10-06T06:15:36.803Z,13.17
2022-10-06T06:17:40.122Z,13.24
2022-10-06T06:19:43.627Z,13.14
2022-10-06T06:21:48.656Z,12.97
2022-10-06T06:23:51.948Z,12.98
2022-10-06T06:26:02.420Z,13.01
2022-10-06T06:28:07.132Z,13.01
2022-10-06T06:30:11.695Z,13.07
2022-10-06T06:32:16.422Z,13.23
2022-10-06T06:34:21.295Z,13.22
2022-10-06T06:36:26.833Z,12.98
2022-10-06T06:38:32.983Z,13.00
2022-10-06T06:40:41.356Z,13.03
2022-10-06T06:42:44.820Z,12.91
2022-10-06T06:44:54.196Z,13.08
2022-10-06T06:47:11.877Z,13.05
2022-10-06T06:49:15.446Z,13.16
2022-10-06T06:51:24.177Z,13.17
2022-10-06T06:53:27.788Z,13.25
2022-10-06T06:55:35.639Z,13.23
2022-10-06T06:57:38.976Z,13.30
2022-10-06T06:59:43.328Z,13.22
2022-10-06T07:01:48.842Z,13.17
2022-10-06T07:03:59.611Z,13.17
2022-10-06T07:06:09.841Z,13.25
2022-10-06T07:08:15.961Z,13.28
2022-10-06T07:10:19.838Z,13.31
2022-10-06T07:12:25.446Z,13.19
2022-10-06T07:14:34.170Z,13.16
2022-10-06T07:16:57.061Z,13.36
2022-10-06T07:19:24.502Z,13.60
2022-10-06T07:21:46.212Z,13.56
2022-10-06T07:24:18.287Z,13.66
2022-10-06T07:26:21.729Z,13.52
2022-10-06T07:28:30.596Z,13.50
2022-10-06T07:30:39.814Z,13.45
2022-10-06T07:32:51.333Z,13.43
2022-10-06T07:34:55.138Z,13.47
2022-10-06T07:37:02.724Z,13.58
2022-10-06T07:39:10.466Z,13.74
2022-10-06T07:41:19.355Z,13.79
2022-10-06T07:43:33.614Z,13.92
2022-10-06T07:45:41.412Z,13.91
2022-10-06T07:47:58.884Z,13.88
2022-10-06T07:50:02.713Z,13.62
2022-10-06T07:52:06.375Z,13.59
2022-10-06T07:54:09.862Z,13.67
2022-10-06T07:56:35.791Z,13.59
2022-10-06T07:58:40.726Z,13.71
2022-10-06T08:00:44.452Z,13.89
2022-10-06T08:02:47.874Z,14.07
2022-10-06T08:04:51.496Z,14.09
2022-10-06T08:06:58.468Z,14.09
2022-10-06T08:09:01.881Z,14.18
2022-10-06T08:11:08.175Z,14.24
2022-10-06T08:13:11.665Z,14.19
2022-10-06T08:15:16.505Z,14.16
2022-10-06T08:17:19.858Z,14.12
2022-10-06T08:19:23.116Z,14.20
2022-10-06T08:21:28.872Z,14.30
2022-10-06T08:23:32.671Z,14.44
2022-10-06T08:25:42.584Z,14.59
2022-10-06T08:27:49.011Z,14.48
2022-10-06T08:29:56.383Z,14.35
2022-10-06T08:32:01.753Z,14.53
2022-10-06T08:34:11.819Z,14.60
2022-10-06T08:36:17.825Z,14.48
2022-10-06T08:38:21.777Z,14.53
2022-10-06T08:40:26.907Z,14.62
2022-10-06T08:42:38.202Z,14.69
2022-10-06T08:44:45.533Z,14.79
2022-10-06T08:46:54.988Z,14.60
2022-10-06T08:48:59.831Z,14.73
2022-10-06T08:51:18.616Z,14.87
2022-10-06T08:53:29.045Z,14.77
2022-10-06T08:55:38.545Z,14.95
2022-10-06T08:57:51.111Z,15.16
2022-10-06T08:59:54.640Z,15.25
2022-10-06T09:01:58.265Z,15.23
2022-10-06T09:04:07.248Z,15.06
2022-10-06T09:06:23.194Z,15.04
2022-10-06T09:08:39.693Z,14.88
2022-10-06T09:10:52.078Z,14.83
2022-10-06T09:12:58.650Z,14.92
2022-10-06T09:15:16.399Z,14.56
2022-10-06T09:17:26.176Z,15.03
2022-10-06T09:19:38.545Z,14.98
2022-10-06T09:21:46.498Z,15.21
2022-10-06T09:23:56.969Z,15.32
2022-10-06T09:26:01.246Z,15.38
2022-10-06T09:28:09.475Z,15.50
2022-10-06T09:30:13.463Z,15.65
2022-10-06T09:32:17.799Z,15.59
2022-10-06T09:34:27.035Z,15.79
2022-10-06T09:36:32.330Z,15.80
2022-10-06T09:38:48.255Z,15.94
2022-10-06T09:40:53.714Z,15.97
2022-10-06T09:42:57.263Z,15.88
2022-10-06T09:45:02.581Z,15.95
2022-10-06T09:47:25.146Z,16.30
2022-10-06T09:49:31.418Z,16.17
2022-10-06T09:51:36.444Z,16.04
2022-10-06T09:53:40.181Z,16.21
2022-10-06T09:55:54.629Z,16.63
2022-10-06T09:57:58.905Z,16.79
2022-10-06T10:00:02.994Z,16.56
2022-10-06T10:02:24.843Z,16.53
2022-10-06T10:04:31.287Z,16.53
2022-10-06T10:06:36.144Z,16.63
2022-10-06T10:08:39.550Z,16.68
2022-10-06T10:10:42.965Z,16.77
2022-10-06T10:12:51.648Z,16.67
2022-10-06T10:14:57.461Z,16.68
2022-10-06T10:17:10.468Z,17.07
2022-10-06T10:19:24.963Z,17.00
2022-10-06T10:21:30.895Z,17.05
2022-10-06T10:23:39.290Z,17.25
2022-10-06T10:26:09.048Z,17.40
2022-10-06T10:28:24.694Z,17.47
2022-10-06T10:30:28.460Z,17.87
2022-10-06T10:32:46.472Z,18.22
2022-10-06T10:35:00.762Z,18.47
2022-10-06T10:37:10.414Z,18.60
2022-10-06T10:39:21.903Z,18.83
2022-10-06T10:41:28.411Z,18.29
2022-10-06T10:43:35.041Z,17.88
2022-10-06T10:45:44.850Z,17.85
2022-10-06T10:47:50.167Z,18.51
2022-10-06T10:50:00.092Z,18.46
2022-10-06T10:52:10.572Z,18.44
2022-10-06T10:54:19.717Z,18.69
2022-10-06T10:56:26.808Z,18.83
2022-10-06T10:58:34.872Z,18.23
2022-10-06T11:00:44.013Z,18.90
2022-10-06T11:02:47.940Z,19.14
2022-10-06T11:04:53.921Z,19.10
2022-10-06T11:07:11.048Z,19.11
2022-10-06T11:09:19.209Z,19.23
2022-10-06T11:11:36.678Z,19.27
2022-10-06T11:13:44.945Z,19.63
2022-10-06T11:16:11.982Z,20.02
2022-10-06T11:18:25.739Z,20.03
2022-10-06T11:20:45.919Z,19.63
2022-10-06T11:22:57.864Z,19.74
2022-10-06T11:25:13.681Z,19.96
2022-10-06T11:27:27.207Z,20.10
2022-10-06T11:29:40.761Z,20.42
2022-10-06T11:31:54.667Z,20.44
2022-10-06T11:34:01.671Z,20.15
2022-10-06T11:36:09.338Z,20.17
2022-10-06T11:38:23.430Z,20.19
2022-10-06T11:40:42.276Z,19.98
2022-10-06T11:42:51.670Z,19.79
2022-10-06T11:45:00.866Z,19.95
2022-10-06T11:47:09.072Z,20.15
2022-10-06T11:49:39.400Z,20.38
2022-10-06T11:51:42.738Z,20.83
2022-10-06T11:53:46.349Z,20.57
2022-10-06T11:56:40.988Z,20.53
2022-10-06T11:59:13.970Z,20.46
2022-10-06T12:01:51.840Z,20.53
2022-10-06T12:04:12.969Z,20.36
2022-10-06T12:07:06.872Z,20.77
2022-10-06T12:09:52.471Z,20.31
2022-10-06T12:11:58.852Z,20.42
2022-10-06T12:15:06.452Z,20.58
2022-10-06T12:19:08.692Z,20.93
2022-10-06T12:21:23.951Z,21.11
2022-10-06T12:23:42.372Z,21.10
2022-10-06T12:25:54.348Z,20.55
2022-10-06T12:28:10.976Z,20.85
2022-10-06T12:30:24.713Z,20.89
2022-10-06T12:32:49.468Z,21.20
2022-10-06T12:35:18.031Z,21.42
2022-10-06T12:37:41.212Z,21.57
2022-10-06T12:39:44.583Z,21.84
2022-10-06T12:41:58.818Z,22.24
2022-10-06T12:44:05.320Z,21.74
2022-10-06T12:46:16.584Z,21.66
2022-10-06T12:48:24.737Z,21.79
2022-10-06T12:50:29.110Z,22.00
2022-10-06T12:52:48.054Z,22.18
2022-10-06T12:55:04.176Z,22.28
2022-10-06T12:57:18.102Z,22.17
2022-10-06T12:59:26.967Z,21.90
2022-10-06T13:01:31.102Z,22.00
2022-10-06T13:03:35.703Z,22.47
2022-10-06T13:05:39.081Z,22.37
2022-10-06T13:07:57.527Z,22.93
2022-10-06T13:10:19.117Z,22.88
2022-10-06T13:12:31.110Z,22.89
2022-10-06T13:14:36.080Z,23.08
2022-10-06T13:16:41.909Z,22.62
2022-10-06T13:18:45.510Z,22.43
2022-10-06T13:20:50.522Z,22.37
2022-10-06T13:23:03.160Z,22.55
2022-10-06T13:25:12.917Z,23.06
2022-10-06T13:27:18.637Z,22.95
2022-10-06T13:29:25.300Z,22.53
2022-10-06T13:31:31.459Z,21.58
2022-10-06T13:33:40.376Z,21.96
2022-10-06T13:35:44.057Z,21.54
2022-10-06T13:37:47.762Z,21.99
2022-10-06T13:39:51.093Z,21.87
2022-10-06T13:41:57.212Z,21.21
2022-10-06T13:44:03.282Z,21.47
2022-10-06T13:46:09.568Z,21.79
2022-10-06T13:48:18.029Z,22.08
2022-10-06T13:50:21.560Z,22.06
2022-10-06T13:52:34.077Z,22.35
2022-10-06T13:54:41.842Z,22.86
2022-10-06T13:56:45.547Z,22.09
2022-10-06T13:58:48.906Z,22.28
2022-10-06T14:00:56.248Z,22.44
2022-10-06T14:03:10.591Z,22.67
2022-10-06T14:05:31.436Z,23.37
2022-10-06T14:07:34.842Z,23.34
2022-10-06T14:09:38.226Z,23.37
2022-10-06T14:11:43.436Z,23.45
2022-10-06T14:13:54.370Z,23.26
2022-10-06T14:16:00.029Z,23.48
2022-10-06T14:18:06.080Z,23.04
2022-10-06T14:20:43.399Z,23.16
2022-10-06T14:22:46.759Z,22.80
2022-10-06T14:24:52.283Z,23.09
2022-10-06T14:27:01.898Z,23.05
2022-10-06T14:29:05.665Z,23.03
2022-10-06T14:31:14.428Z,23.02
2022-10-06T14:33:18.303Z,23.01
2022-10-06T14:35:21.584Z,22.87
2022-10-06T14:37:26.497Z,22.97
2022-10-06T14:39:29.788Z,22.99
2022-10-06T14:41:33.705Z,22.86
2022-10-06T14:43:36.997Z,23.03
2022-10-06T14:45:43.789Z,23.20
2022-10-06T14:47:47.556Z,22.68
2022-10-06T14:49:51.364Z,23.47
2022-10-06T14:51:55.828Z,23.36
2022-10-06T14:54:01.253Z,23.20
2022-10-06T14:56:06.395Z,23.13
2022-10-06T14:58:09.783Z,22.93
2022-10-06T15:00:14.547Z,22.62
2022-10-06T15:02:20.355Z,22.81
2022-10-06T15:04:26.501Z,23.00
2022-10-06T15:06:47.877Z,22.61
2022-10-06T15:08:52.023Z,22.47
2022-10-06T15:10:56.689Z,22.58
2022-10-06T15:13:00.661Z,22.99
2022-10-06T15:15:06.263Z,23.02
2022-10-06T15:17:09.616Z,22.46
2022-10-06T15:19:13.672Z,22.48
2022-10-06T15:21:18.460Z,22.60
2022-10-06T15:23:21.816Z,22.30
2022-10-06T15:25:42.643Z,22.37
2022-10-06T15:28:05.037Z,22.47
2022-10-06T15:30:11.204Z,22.25
2022-10-06T15:32:15.526Z,22.29
2022-10-06T15:34:20.528Z,21.96
2022-10-06T15:36:25.573Z,21.92
2022-10-06T15:38:28.876Z,21.31
2022-10-06T15:40:32.184Z,21.20
2022-10-06T15:42:35.535Z,21.22
2022-10-06T15:44:40.349Z,20.83
2022-10-06T15:46:45.596Z,20.41
2022-10-06T15:48:49.018Z,20.39
2022-10-06T15:50:52.370Z,20.29
2022-10-06T15:52:55.840Z,20.07
2022-10-06T15:54:59.155Z,20.15
2022-10-06T15:57:05.598Z,20.11
2022-10-06T15:59:09.828Z,19.86
2022-10-06T16:01:38.773Z,19.39
2022-10-06T16:03:44.255Z,19.41
2022-10-06T16:05:51.602Z,19.07
2022-10-06T16:07:54.859Z,19.25
2022-10-06T16:09:58.261Z,19.12
2022-10-06T16:12:03.475Z,19.14
2022-10-06T16:14:07.538Z,19.08
2022-10-06T16:16:11.194Z,19.17
2022-10-06T16:18:15.979Z,19.01
2022-10-06T16:20:19.714Z,18.80
2022-10-06T16:22:23.062Z,18.76
2022-10-06T16:24:26.445Z,18.94
2022-10-06T16:26:29.917Z,18.89
2022-10-06T16:28:33.980Z,18.76
2022-10-06T16:30:37.361Z,18.85
2022-10-06T16:32:41.007Z,18.82
2022-10-06T16:34:50.262Z,18.81
2022-10-06T16:36:53.652Z,18.79
2022-10-06T16:38:57.408Z,18.68
2022-10-06T16:41:02.549Z,18.64
2022-10-06T16:43:05.843Z,18.54
2022-10-06T16:45:09.797Z,18.62
2022-10-06T16:47:13.092Z,18.50
2022-10-06T16:49:16.475Z,18.49
2022-10-06T16:51:23.339Z,18.42
2022-10-06T16:53:26.882Z,18.29
2022-10-06T16:55:30.308Z,18.30
2022-10-06T16:57:33.615Z,18.13
2022-10-06T16:59:37.162Z,18.17
2022-10-06T17:01:40.583Z,18.19
2022-10-06T17:03:44.283Z,18.23
2022-10-06T17:05:47.704Z,18.11
2022-10-06T17:07:56.949Z,18.07
2022-10-06T17:10:22.140Z,17.98
2022-10-06T17:12:25.670Z,17.98
2022-10-06T17:14:30.930Z,17.96
2022-10-06T17:16:36.957Z,17.81
2022-10-06T17:18:40.456Z,17.89
2022-10-06T17:20:43.824Z,17.91
2022-10-06T17:22:47.327Z,17.91
2022-10-06T17:24:52.035Z,17.97
2022-10-06T17:26:55.828Z,17.97
2022-10-06T17:29:00.996Z,17.77
2022-10-06T17:31:04.343Z,17.96
2022-10-06T17:33:07.769Z,17.99
2022-10-06T17:35:11.151Z,17.96
2022-10-06T17:37:14.490Z,17.96
2022-10-06T17:39:19.315Z,17.98
2022-10-06T17:41:29.676Z,17.96
2022-10-06T17:43:36.290Z,17.88
2022-10-06T17:45:40.156Z,17.79
2022-10-06T17:47:43.693Z,17.77
2022-10-06T17:49:47.079Z,17.70
2022-10-06T17:51:51.544Z,17.67
2022-10-06T17:53:57.203Z,17.62
2022-10-06T17:56:06.639Z,17.56
2022-10-06T17:58:15.193Z,17.40
2022-10-06T18:00:21.208Z,17.29
2022-10-06T18:02:24.599Z,17.21
2022-10-06T18:04:28.746Z,17.06
2022-10-06T18:06:35.304Z,16.99
2022-10-06T18:08:39.526Z,16.87
2022-10-06T18:11:06.032Z,16.57
2022-10-06T18:13:10.715Z,16.64
2022-10-06T18:15:14.441Z,16.63
2022-10-06T18:17:20.161Z,16.43
2022-10-06T18:19:26.328Z,16.26
2022-10-06T18:21:37.273Z,16.34
2022-10-06T18:23:42.692Z,16.00
2022-10-06T18:25:46.675Z,16.20
2022-10-06T18:27:49.967Z,16.05
2022-10-06T18:29:54.687Z,16.09
2022-10-06T18:32:09.397Z,16.09
2022-10-06T18:36:42.945Z,16.06
2022-10-06T18:38:46.988Z,16.02
2022-10-06T18:40:58.019Z,16.04
2022-10-06T18:43:01.571Z,15.95
2022-10-06T18:45:25.380Z,15.74
2022-10-06T18:47:46.658Z,15.87
2022-10-06T18:49:50.234Z,15.74
2022-10-06T18:51:58.354Z,15.62
2022-10-06T18:54:04.313Z,15.62
2022-10-06T18:56:07.811Z,15.62
2022-10-06T18:58:11.119Z,15.58
2022-10-06T19:00:17.362Z,15.50
2022-10-06T19:02:20.799Z,15.52
2022-10-06T19:04:25.088Z,15.44
2022-10-06T19:06:30.092Z,15.43
2022-10-06T19:08:34.072Z,15.42
2022-10-06T19:10:57.368Z,15.41
2022-10-06T19:13:01.101Z,15.25
2022-10-06T19:15:05.231Z,15.24
2022-10-06T19:17:13.098Z,15.20
2022-10-06T19:19:19.312Z,15.09
2022-10-06T19:21:22.762Z,15.10
2022-10-06T19:23:26.096Z,15.00
2022-10-06T19:25:29.409Z,14.88
2022-10-06T19:27:33.288Z,14.86
2022-10-06T19:29:37.781Z,14.91
2022-10-06T19:31:43.492Z,14.91
2022-10-06T19:33:49.114Z,14.70
2022-10-06T19:35:53.368Z,14.82
2022-10-06T19:37:56.747Z,14.77
2022-10-06T19:40:01.379Z,14.79
2022-10-06T19:42:22.195Z,14.81
2022-10-06T19:44:25.972Z,14.82
2022-10-06T19:46:29.539Z,14.83
2022-10-06T19:48:33.078Z,14.71
2022-10-06T19:50:38.908Z,14.67
2022-10-06T19:52:42.950Z,14.71
2022-10-06T19:54:46.326Z,14.72
2022-10-06T19:56:49.935Z,14.70
2022-10-06T19:58:53.648Z,14.67
2022-10-06T20:00:57.098Z,14.72
2022-10-06T20:03:00.761Z,14.68
2022-10-06T20:05:04.200Z,14.57
2022-10-06T20:07:09.303Z,14.52
2022-10-06T20:09:14.594Z,14.38
2022-10-06T20:11:20.857Z,14.45
2022-10-06T20:13:24.232Z,14.43
2022-10-06T20:15:27.685Z,14.40
2022-10-06T20:17:31.029Z,14.30
2022-10-06T20:19:35.264Z,14.17
2022-10-06T20:21:39.845Z,13.87
2022-10-06T20:23:48.111Z,13.76
2022-10-06T20:25:51.673Z,13.78
2022-10-06T20:27:55.002Z,13.66
2022-10-06T20:29:59.010Z,13.63
2022-10-06T20:32:02.335Z,13.70
2022-10-06T20:34:07.781Z,13.73
2022-10-06T20:36:11.482Z,13.77
2022-10-06T20:38:14.816Z,13.70
2022-10-06T20:40:37.115Z,13.77
2022-10-06T20:42:44.709Z,13.64
2022-10-06T20:44:48.652Z,13.65
2022-10-06T20:46:52.311Z,13.63
2022-10-06T20:48:55.700Z,13.71
2022-10-06T20:50:59.369Z,13.67
2022-10-06T20:53:02.732Z,13.65
2022-10-06T20:55:07.507Z,13.79
2022-10-06T20:57:12.984Z,13.83
2022-10-06T20:59:16.419Z,13.72
2022-10-06T21:01:22.095Z,13.69
2022-10-06T21:03:25.484Z,13.70
2022-10-06T21:05:32.986Z,13.59
2022-10-06T21:07:42.346Z,13.57
2022-10-06T21:09:51.233Z,13.51
2022-10-06T21:11:56.328Z,13.49
2022-10-06T21:14:01.819Z,13.25
2022-10-06T21:16:05.985Z,12.65
2022-10-06T21:18:09.350Z,12.56
2022-10-06T21:20:12.698Z,12.57
2022-10-06T21:22:16.392Z,12.56
2022-10-06T21:24:20.367Z,12.61
2022-10-06T21:26:27.013Z,12.64
2022-10-06T21:28:30.557Z,12.55
2022-10-06T21:30:35.729Z,12.58
2022-10-06T21:32:39.210Z,12.74
2022-10-06T21:34:42.502Z,12.86
2022-10-06T21:36:45.869Z,12.81
2022-10-06T21:38:51.214Z,12.77
2022-10-06T21:40:54.613Z,12.53
2022-10-06T21:42:57.963Z,12.43
2022-10-06T21:45:01.338Z,12.37
2022-10-06T21:47:06.302Z,12.47
2022-10-06T21:49:12.055Z,12.37
2022-10-06T21:51:15.394Z,12.27
2022-10-06T21:53:18.895Z,12.27
2022-10-06T21:55:22.224Z,12.37
2022-10-06T21:57:25.521Z,12.38
2022-10-06T21:59:28.840Z,12.27
2022-10-06T22:01:34.649Z,12.14
2022-10-06T22:03:39.987Z,12.18
2022-10-06T22:05:43.283Z,12.23
2022-10-06T22:07:46.824Z,12.25
2022-10-06T22:09:50.299Z,12.25
2022-10-06T22:11:53.619Z,12.16
2022-10-06T22:13:59.260Z,12.26
2022-10-06T22:16:03.883Z,12.23
2022-10-06T22:18:07.218Z,12.13
2022-10-06T22:20:12.019Z,12.08
2022-10-06T22:22:15.406Z,12.17
2022-10-06T22:24:20.698Z,12.11
2022-10-06T22:26:25.067Z,11.96
2022-10-06T22:28:28.587Z,11.76
2022-10-06T22:30:31.982Z,11.61
2022-10-06T22:32:35.246Z,11.67
2022-10-06T22:34:38.639Z,11.66
2022-10-06T22:36:43.368Z,11.67
2022-10-06T22:38:46.825Z,11.53
2022-10-06T22:40:50.127Z,11.62
2022-10-06T22:42:53.436Z,11.75
2022-10-06T22:44:56.738Z,11.90
2022-10-06T22:47:00.270Z,11.97
2022-10-06T22:49:04.552Z,12.05
2022-10-06T22:51:08.065Z,12.16
2022-10-06T22:53:12.697Z,12.16
2022-10-06T22:55:16.167Z,12.17
2022-10-06T22:57:19.494Z,12.06
2022-10-06T22:59:22.784Z,12.14
2022-10-06T23:01:26.958Z,12.14
2022-10-06T23:03:30.278Z,12.17
2022-10-06T23:05:33.914Z,12.18
2022-10-06T23:07:37.184Z,12.16
2022-10-06T23:09:42.102Z,12.08
2022-10-06T23:11:45.428Z,12.11
2022-10-06T23:13:50.243Z,12.14
2022-10-06T23:16:06.494Z,12.11
2022-10-06T23:18:10.814Z,12.04
2022-10-06T23:20:14.664Z,12.08
2022-10-06T23:22:17.966Z,12.10
2022-10-06T23:24:21.288Z,12.05
2022-10-06T23:26:26.113Z,12.11
2022-10-06T23:28:29.470Z,12.10
2022-10-06T23:30:35.466Z,12.18
2022-10-06T23:32:40.631Z,12.08
2022-10-06T23:34:43.964Z,12.06
2022-10-06T23:36:47.244Z,12.10
2022-10-06T23:38:50.654Z,12.06
2022-10-06T23:40:54.025Z,11.88
2022-10-06T23:42:59.064Z,11.86
2022-10-06T23:45:02.419Z,11.79
2022-10-06T23:47:06.187Z,11.84
2022-10-06T23:49:09.530Z,11.77
2022-10-06T23:51:15.138Z,11.73
2022-10-06T23:53:18.441Z,11.84
2022-10-06T23:55:21.794Z,11.86
2022-10-06T23:57:25.182Z,11.92
2022-10-06T23:59:29.920Z,11.96
